Hillisburg, Indiana
Current Conditions -  °F | °C
As of 1:55 AM on Thursday 23 Oct 2014 (Local Time) from KTYQ Reporting Station
Haze Haze  
Wind Chill: 36°   Ceiling: 700
Heat Index: 36°   Visibility: 1.7mi
Dew Point: 32°   Wind: 0mph
Humidity: 88%   Direction: NA
Pressure: 30.28"   Gusts: NA
Location:  40.29°N, 86.34°W
Report Text: KTYQ 230555Z AUTO 00000KT 1 3/4SM BR VV007 02/00 A3028 RMK AO2 T00200002 10077 20020
Loading
Personal Weather Stations






























Interactive Weather Map
Tropical Storm Tracking
New forecast layout! Learn more

10-Day Weather Forecast

Advertisements
Track Severe Weather on mobile